Time;durP1;ratioP1;P1;durP2;ratioP2;P2;SDS_P1;SDS_P2;PMS_P1;PMS_P2;Temp;Humidity;BMP_temperature;BMP_pressure;BME280_temperature;BME280_humidity;BME280_pressure;Samples;Min_cycle;Max_cycle;Signal;HPM_P1;HPM_P2
2022/01/12 00:01:48;;;;;;;8.55;5.45;;;;;;;-2.00;100.00;61797.75;5067302;28;20273;-76
2022/01/12 00:04:16;;;;;;;9.88;6.00;;;;;;;-2.12;100.00;61785.47;5062942;28;20240;-76
2022/01/12 00:06:43;;;;;;;7.93;4.97;;;;;;;-2.31;100.00;61770.53;5065277;28;20577;-76
2022/01/12 00:09:11;;;;;;;10.63;5.47;;;;;;;-2.30;100.00;61767.06;5062114;28;20263;-76
2022/01/12 00:11:41;;;;;;;10.60;6.50;;;;;;;-2.47;100.00;61747.72;5062276;28;20194;-76
2022/01/12 00:14:08;;;;;;;9.88;5.85;;;;;;;-2.63;100.00;61733.84;5064559;28;20222;-77
2022/01/12 00:16:36;;;;;;;7.97;4.82;;;;;;;-2.82;100.00;61713.91;5064009;28;20225;-76
2022/01/12 00:19:05;;;;;;;5.05;3.63;;;;;;;-3.05;100.00;61687.94;5056450;28;20542;-77
2022/01/12 00:21:31;;;;;;;11.40;5.40;;;;;;;-2.95;100.00;61701.16;5064360;28;20255;-77
2022/01/12 00:23:58;;;;;;;8.43;4.57;;;;;;;-2.93;100.00;61702.69;5064890;28;20217;-77
2022/01/12 00:26:40;;;;;;;7.65;5.47;;;;;;;-2.83;100.00;61713.41;5063635;28;20506;-77
2022/01/12 00:34:38;;;;;;;10.30;5.43;;;;;;;-2.74;100.00;61722.59;5064543;28;20232;-76
2022/01/12 00:37:05;;;;;;;5.20;4.63;;;;;;;-3.14;100.00;61676.25;5063833;28;20194;-76
2022/01/12 00:39:34;;;;;;;10.38;5.75;;;;;;;-3.09;100.00;61683.84;5061948;28;20232;-76
2022/01/12 00:42:02;;;;;;;7.88;5.93;;;;;;;-2.99;100.00;61692.09;5066828;28;20261;-77
2022/01/12 00:44:35;;;;;;;9.82;5.90;;;;;;;-2.97;100.00;61696.59;5065198;28;20404;-77
2022/01/12 00:47:02;;;;;;;6.72;5.00;;;;;;;-2.89;100.00;61702.31;5064250;28;20214;-75
2022/01/12 00:49:31;;;;;;;10.10;6.75;;;;;;;-2.93;100.00;61700.19;5059174;28;20225;-76
2022/01/12 00:51:57;;;;;;;12.02;7.18;;;;;;;-2.82;100.00;61716.41;5064747;28;20247;-76
2022/01/12 00:54:25;;;;;;;12.35;5.93;;;;;;;-2.86;100.00;61712.84;5063396;28;20236;-77
2022/01/12 00:56:52;;;;;;;8.45;6.00;;;;;;;-2.89;100.00;61709.78;5062923;28;20201;-77
2022/01/12 00:59:19;;;;;;;8.25;5.72;;;;;;;-2.80;100.00;61718.97;5065049;28;20263;-76
2022/01/12 01:01:47;;;;;;;11.52;5.55;;;;;;;-2.82;100.00;61716.94;5069576;28;20276;-76
2022/01/12 01:04:15;;;;;;;8.75;5.22;;;;;;;-2.79;100.00;61719.47;5068286;28;20537;-77
2022/01/12 01:06:42;;;;;;;9.23;6.00;;;;;;;-2.87;100.00;61711.81;5064226;28;20229;-78
2022/01/12 01:09:11;;;;;;;9.32;6.00;;;;;;;-2.98;100.00;61697.56;5075651;28;20221;-77
2022/01/12 01:11:38;;;;;;;8.65;6.22;;;;;;;-2.98;100.00;61698.09;5076907;28;20224;-77
2022/01/12 01:14:14;;;;;;;8.10;6.20;;;;;;;-2.83;100.00;61710.91;5078199;28;20223;-77
2022/01/12 01:16:52;;;;;;;12.48;7.50;;;;;;;-2.81;100.00;61712.44;5074486;28;20204;-77
2022/01/12 01:27:44;;;;;;;11.77;6.70;;;;;;;-2.80;100.00;61715.97;5067782;28;20209;-76
2022/01/12 01:30:11;;;;;;;10.43;5.88;;;;;;;-2.80;100.00;61714.00;5058375;28;20225;-76
2022/01/12 01:32:39;;;;;;;9.80;6.13;;;;;;;-2.71;100.00;61727.66;5048268;28;20395;-76
2022/01/12 01:35:11;;;;;;;10.13;7.22;;;;;;;-2.77;100.00;61721.53;5060215;28;20557;-76
2022/01/12 01:37:41;;;;;;;11.70;6.55;;;;;;;-2.85;100.00;61708.38;5067520;28;20197;-76
2022/01/12 01:40:09;;;;;;;11.45;6.63;;;;;;;-2.78;100.00;61716.03;5065269;28;20460;-77
2022/01/12 01:42:53;;;;;;;12.35;7.10;;;;;;;-2.74;100.00;61722.59;5066380;28;20272;-77
2022/01/12 01:53:39;;;;;;;7.45;4.80;;;;;;;-2.71;100.00;61727.66;5065241;28;20228;-75
2022/01/12 01:56:06;;;;;;;9.23;5.43;;;;;;;-2.64;100.00;61730.34;5065572;28;20309;-76
2022/01/12 01:58:34;;;;;;;5.70;4.55;;;;;;;-2.71;100.00;61722.69;5066616;28;20248;-77
2022/01/12 02:01:01;;;;;;;7.68;4.70;;;;;;;-2.87;100.00;61703.84;5065178;28;20247;-76
2022/01/12 02:03:29;;;;;;;6.43;4.15;;;;;;;-2.85;100.00;61710.88;5063395;28;20271;-76
2022/01/12 02:05:59;;;;;;;7.53;4.28;;;;;;;-2.82;100.00;61708.94;5064861;28;20193;-76
2022/01/12 02:08:26;;;;;;;7.10;4.78;;;;;;;-2.81;100.00;61715.44;5065661;28;20244;-76
2022/01/12 02:10:54;;;;;;;6.68;4.90;;;;;;;-2.78;100.00;61720.50;5060606;28;20243;-75
2022/01/12 02:13:22;;;;;;;9.57;5.63;;;;;;;-2.71;100.00;61722.69;5060670;28;20205;-75
2022/01/12 02:15:51;;;;;;;6.63;5.10;;;;;;;-2.75;100.00;61718.59;5067272;28;20220;-75
2022/01/12 02:18:31;;;;;;;9.35;5.88;;;;;;;-2.75;100.00;61721.59;5068645;28;20201;-76
2022/01/12 02:40:23;;;;;;;7.95;4.18;;;;;;;-2.83;100.00;61710.41;5064240;28;20466;-76
2022/01/12 02:43:02;;;;;;;5.75;4.38;;;;;;;-2.83;100.00;61710.91;5065085;28;20208;-76
2022/01/12 02:51:10;;;;;;;6.45;4.18;;;;;;;-2.58;100.00;61741.47;5060211;28;20266;-76
2022/01/12 02:53:39;;;;;;;6.18;4.90;;;;;;;-2.70;100.00;61724.22;5063664;28;20255;-77
2022/01/12 02:56:07;;;;;;;7.28;4.57;;;;;;;-3.08;100.00;61685.38;5060005;28;20201;-75
2022/01/12 02:58:34;;;;;;;8.52;4.85;;;;;;;-2.92;100.00;61701.22;5063762;28;20248;-77
2022/01/12 03:03:44;;;;;;;8.32;4.38;;;;;;;-2.93;100.00;61695.19;5064363;28;20413;-77
2022/01/12 03:06:16;;;;;;;7.82;4.70;;;;;;;-2.85;100.00;61708.88;5059945;28;20209;-77
2022/01/12 03:08:44;;;;;;;6.53;4.90;;;;;;;-2.90;100.00;61701.28;5065147;28;20252;-77
2022/01/12 03:11:13;;;;;;;5.45;3.60;;;;;;;-2.83;100.00;61715.41;5064388;28;20197;-77
2022/01/12 03:13:40;;;;;;;6.72;4.45;;;;;;;-2.74;100.00;61722.59;5064305;28;20230;-77
2022/01/12 03:16:13;;;;;;;7.38;4.65;;;;;;;-3.19;100.00;61681.09;5061448;28;20267;-76
2022/01/12 03:18:41;;;;;;;4.07;3.72;;;;;;;-3.42;100.00;61655.63;5064113;28;20248;-75
2022/01/12 03:21:08;;;;;;;5.97;4.07;;;;;;;-3.37;100.00;61653.28;5065220;28;20277;-76
2022/01/12 03:23:35;;;;;;;4.50;4.05;;;;;;;-3.23;100.00;61670.06;5060347;28;20569;-76
2022/01/12 03:26:04;;;;;;;6.22;3.80;;;;;;;-3.10;100.00;61685.31;5064290;28;20453;-77
2022/01/12 03:28:31;;;;;;;5.70;4.20;;;;;;;-3.21;100.00;61674.09;5054929;28;20237;-77
2022/01/12 03:31:06;;;;;;;6.28;4.43;;;;;;;-3.21;100.00;61669.59;5065492;28;20460;-76
2022/01/12 03:33:50;;;;;;;4.45;3.65;;;;;;;-3.27;100.00;61670.94;5058643;28;20217;-77
2022/01/12 04:09:38;;;;;;;5.95;4.32;;;;;;;-3.22;100.00;61673.06;5059638;28;20232;-76
2022/01/12 04:12:05;;;;;;;6.45;4.45;;;;;;;-3.62;100.00;61628.25;5064215;28;20197;-75
2022/01/12 04:14:32;;;;;;;6.35;4.28;;;;;;;-3.29;100.00;61665.91;5062363;28;20232;-75
2022/01/12 04:16:58;;;;;;;6.72;4.63;;;;;;;-3.18;100.00;61677.16;5065471;28;20197;-75
2022/01/12 04:19:27;;;;;;;7.22;4.13;;;;;;;-3.22;100.00;61671.06;5061096;28;20229;-76
2022/01/12 04:21:55;;;;;;;9.10;4.22;;;;;;;-3.12;100.00;61681.28;5062832;28;20211;-76
2022/01/12 04:24:22;;;;;;;15.45;7.82;;;;;;;-3.02;100.00;61693.50;5063945;28;20453;-76
2022/01/12 04:26:49;;;;;;;6.65;4.50;;;;;;;-2.97;100.00;61696.59;5063878;28;20201;-77
2022/01/12 04:29:16;;;;;;;8.30;4.78;;;;;;;-3.06;100.00;61694.38;5056217;28;20213;-75
2022/01/12 04:31:43;;;;;;;6.32;4.82;;;;;;;-3.00;100.00;61695.53;5061751;28;20201;-76
2022/01/12 04:34:09;;;;;;;5.75;4.20;;;;;;;-2.99;100.00;61696.56;5066798;28;20458;-76
2022/01/12 04:36:37;;;;;;;6.85;3.97;;;;;;;-3.09;100.00;61683.84;5063787;28;20209;-76
2022/01/12 04:39:05;;;;;;;3.78;3.38;;;;;;;-3.72;100.00;61627.47;5066681;28;20228;-76
2022/01/12 04:41:32;;;;;;;7.93;5.13;;;;;;;-3.73;100.00;61619.50;5066498;28;20201;-76
2022/01/12 04:44:02;;;;;;;5.35;4.40;;;;;;;-3.74;100.00;61622.94;5067183;28;20217;-75
2022/01/12 04:46:37;;;;;;;6.35;4.00;;;;;;;-3.82;100.00;61610.34;5064395;28;20565;-77
2022/01/12 04:51:48;;;;;;;7.10;4.88;;;;;;;-3.98;100.00;61591.00;5069677;28;20212;-76
2022/01/12 04:54:17;;;;;;;7.70;4.32;;;;;;;-3.80;100.00;61619.31;5072469;28;20217;-76
2022/01/12 04:56:43;;;;;;;7.20;4.53;;;;;;;-3.65;100.00;61624.69;5068253;28;20197;-76
2022/01/12 04:59:10;;;;;;;5.13;3.88;;;;;;;-3.93;100.00;61601.06;5073196;28;20221;-74
2022/01/12 05:01:48;;;;;;;7.32;4.93;;;;;;;-3.89;100.00;61603.19;5078137;28;20194;-75
2022/01/12 05:07:22;;;;;;;4.68;4.05;;;;;;;-3.66;100.00;61628.63;5070111;28;20184;-75
2022/01/12 05:12:50;;;;;;;5.97;3.65;;;;;;;-3.90;100.00;61607.13;5048447;28;20500;-76
2022/01/12 05:15:25;;;;;;;9.18;4.47;;;;;;;-4.00;100.00;61594.44;5067652;28;20217;-75
2022/01/12 05:17:52;;;;;;;6.60;4.43;;;;;;;-3.89;100.00;61607.63;5054218;28;20224;-75
2022/01/12 05:20:19;;;;;;;6.88;4.25;;;;;;;-3.97;100.00;61597.50;5049244;28;20218;-76
2022/01/12 05:22:45;;;;;;;4.70;3.45;;;;;;;-3.92;100.00;61599.59;5052778;28;20204;-75
2022/01/12 05:25:17;;;;;;;7.43;5.38;;;;;;;-3.76;100.00;61618.94;5064218;28;20229;-77
2022/01/12 05:27:44;;;;;;;5.55;4.68;;;;;;;-3.58;100.00;61642.28;5067658;28;20217;-77
2022/01/12 05:30:12;;;;;;;6.03;4.00;;;;;;;-3.55;100.00;61647.84;5066570;28;20406;-77
2022/01/12 05:32:39;;;;;;;5.75;4.13;;;;;;;-3.51;100.00;61646.44;5064745;28;20205;-75
2022/01/12 05:35:09;;;;;;;7.05;4.75;;;;;;;-3.55;100.00;61637.88;5066581;28;20305;-77
2022/01/12 05:37:35;;;;;;;9.13;5.05;;;;;;;-3.50;100.00;61649.44;5067027;28;20197;-77
2022/01/12 05:40:02;;;;;;;5.47;4.60;;;;;;;-3.45;100.00;61654.56;5064432;28;20214;-76
2022/01/12 05:42:31;;;;;;;5.60;3.65;;;;;;;-3.40;100.00;61654.69;5063346;28;20209;-76
2022/01/12 05:44:57;;;;;;;5.65;4.40;;;;;;;-3.56;100.00;61633.88;5062676;28;20592;-78
2022/01/12 05:47:38;;;;;;;5.40;4.00;;;;;;;-3.65;100.00;61622.72;5067094;28;20217;-77
2022/01/12 05:50:04;;;;;;;5.05;3.63;;;;;;;-3.55;100.00;61637.88;5061664;28;20267;-77
2022/01/12 05:52:31;;;;;;;7.57;4.45;;;;;;;-3.84;100.00;61612.75;5061789;28;20202;-76
2022/01/12 05:54:59;;;;;;;4.15;3.75;;;;;;;-3.78;100.00;61616.38;5055598;28;20515;-76
2022/01/12 05:57:26;;;;;;;4.85;3.88;;;;;;;-3.69;100.00;61623.06;5066308;28;20209;-76
2022/01/12 05:59:54;;;;;;;4.32;3.78;;;;;;;-3.75;100.00;61624.94;5061977;28;20217;-77
2022/01/12 06:02:21;;;;;;;4.68;3.60;;;;;;;-4.05;100.00;61591.31;5065297;28;20405;-76
2022/01/12 06:04:47;;;;;;;5.20;4.40;;;;;;;-3.98;100.00;61596.47;5064426;28;20395;-76
2022/01/12 06:07:14;;;;;;;5.80;3.90;;;;;;;-3.86;100.00;61603.75;5065683;28;20216;-76
2022/01/12 06:09:41;;;;;;;8.40;5.10;;;;;;;-3.76;100.00;61620.91;5064895;28;20432;-76
2022/01/12 06:12:09;;;;;;;6.13;4.75;;;;;;;-3.66;100.00;61626.66;5064828;28;20494;-76
2022/01/12 06:14:36;;;;;;;6.78;4.35;;;;;;;-3.66;100.00;61628.63;5066584;28;20240;-75
2022/01/12 06:17:05;;;;;;;7.43;4.38;;;;;;;-4.01;100.00;61593.41;5060856;28;20243;-77
2022/01/12 06:19:32;;;;;;;5.43;4.43;;;;;;;-3.86;100.00;61608.72;5059797;28;20229;-77
2022/01/12 06:21:58;;;;;;;6.50;4.35;;;;;;;-3.95;100.00;61597.06;5061822;28;20300;-77
2022/01/12 06:24:25;;;;;;;6.70;4.63;;;;;;;-4.17;100.00;61576.56;5047283;28;20221;-78
2022/01/12 06:26:52;;;;;;;4.78;3.55;;;;;;;-4.26;100.00;61572.38;5051081;28;20201;-76
2022/01/12 06:29:38;;;;;;;8.65;4.47;;;;;;;-4.39;100.00;61557.13;5065757;28;20239;-77
2022/01/12 06:32:07;;;;;;;5.93;2.00;;;;;;;-4.20;100.00;61571.03;5066703;28;20201;-76
2022/01/12 06:34:34;;;;;;;6.18;4.32;;;;;;;-4.32;100.00;61563.75;5066656;28;20263;-76
2022/01/12 06:37:01;;;;;;;6.28;3.58;;;;;;;-4.32;100.00;61566.25;5060748;28;20205;-76
2022/01/12 06:39:28;;;;;;;5.07;3.28;;;;;;;-4.34;100.00;61559.22;5063922;28;20217;-76
2022/01/12 06:41:56;;;;;;;4.57;3.08;;;;;;;-4.21;100.00;61577.47;5065975;28;20213;-78
2022/01/12 06:44:25;;;;;;;4.10;3.70;;;;;;;-4.36;100.00;61559.66;5063912;28;20256;-76
2022/01/12 06:46:54;;;;;;;5.10;2.58;;;;;;;-4.27;100.00;61564.41;5066631;28;20201;-77
2022/01/12 06:49:23;;;;;;;3.88;3.47;;;;;;;-4.24;100.00;61571.91;5067565;28;20236;-76
2022/01/12 06:51:50;;;;;;;2.55;2.30;;;;;;;-4.18;100.00;61571.09;5069930;28;20227;-76
2022/01/12 06:54:17;;;;;;;5.78;4.47;;;;;;;-4.07;100.00;61591.75;5066606;28;20235;-77
2022/01/12 06:56:44;;;;;;;5.88;3.50;;;;;;;-4.08;100.00;61588.75;5066770;28;20517;-77
2022/01/12 06:59:11;;;;;;;4.28;2.67;;;;;;;-4.23;100.00;61575.94;5067471;28;20221;-77
2022/01/12 07:01:38;;;;;;;3.35;2.63;;;;;;;-4.32;100.00;61566.75;5066948;28;20510;-76
2022/01/12 07:04:05;;;;;;;6.68;4.45;;;;;;;-4.04;100.00;61592.34;5061333;28;20244;-76
2022/01/12 07:06:34;;;;;;;5.88;3.42;;;;;;;-3.98;100.00;61595.97;5060350;28;20202;-76
2022/01/12 07:09:01;;;;;;;6.10;4.40;;;;;;;-4.07;100.00;61587.28;5067788;28;20575;-77
2022/01/12 07:11:28;;;;;;;7.15;4.72;;;;;;;-4.06;100.00;61590.28;5066556;28;20197;-76
2022/01/12 07:13:55;;;;;;;5.10;3.10;;;;;;;-4.15;100.00;61579.13;5065815;28;20245;-77
2022/01/12 07:16:21;;;;;;;4.32;3.85;;;;;;;-4.20;100.00;61573.50;5069881;28;20324;-77
2022/01/12 07:18:48;;;;;;;7.53;4.65;;;;;;;-4.17;100.00;61582.06;5069061;28;20221;-78
2022/01/12 07:21:15;;;;;;;12.27;3.25;;;;;;;-4.00;100.00;61604.38;5061669;28;20190;-75
2022/01/12 07:23:44;;;;;;;6.05;4.30;;;;;;;-4.02;100.00;61594.88;5063873;28;20224;-76
2022/01/12 07:26:11;;;;;;;5.47;3.83;;;;;;;-3.86;100.00;61613.19;5071918;28;20194;-76
2022/01/12 07:28:38;;;;;;;7.78;4.32;;;;;;;-3.73;100.00;61622.00;5065564;28;20232;-76
2022/01/12 07:31:05;;;;;;;11.95;4.43;;;;;;;-4.09;100.00;61585.25;5063666;28;20193;-76
2022/01/12 07:33:32;;;;;;;7.45;4.40;;;;;;;-4.19;100.00;61572.03;5070589;28;20221;-76
2022/01/12 07:35:59;;;;;;;6.80;3.30;;;;;;;-4.22;100.00;61569.50;5075175;28;20248;-76
2022/01/12 07:38:27;;;;;;;7.80;5.25;;;;;;;-4.28;100.00;61563.38;5070800;28;20214;-76
2022/01/12 07:40:55;;;;;;;6.07;4.10;;;;;;;-4.33;100.00;61560.75;5074839;28;20201;-76
2022/01/12 07:43:22;;;;;;;4.68;3.38;;;;;;;-4.21;100.00;61575.00;5075166;28;20213;-76
2022/01/12 07:45:49;;;;;;;5.15;3.67;;;;;;;-3.90;100.00;61609.59;5072708;28;20242;-76
2022/01/12 07:48:17;;;;;;;6.68;3.85;;;;;;;-3.93;100.00;61604.06;5071126;28;20225;-77
2022/01/12 07:50:45;;;;;;;4.75;3.60;;;;;;;-3.93;100.00;61599.09;5069494;28;20525;-77
2022/01/12 07:53:12;;;;;;;4.20;3.40;;;;;;;-3.69;100.00;61620.59;5067660;28;20200;-76
2022/01/12 07:55:39;;;;;;;6.22;4.45;;;;;;;-3.67;100.00;61633.09;5063203;28;20235;-76
2022/01/12 07:58:07;;;;;;;4.82;3.72;;;;;;;-3.74;100.00;61625.44;5063749;28;20410;-76
2022/01/12 08:00:35;;;;;;;2.47;2.08;;;;;;;-3.75;100.00;61616.97;5060963;28;20258;-77
2022/01/12 08:03:02;;;;;;;5.90;3.88;;;;;;;-3.81;100.00;61613.81;5066587;28;20221;-76
2022/01/12 08:05:29;;;;;;;6.93;4.82;;;;;;;-3.71;100.00;61624.03;5056986;28;20225;-75
2022/01/12 08:07:55;;;;;;;4.70;3.30;;;;;;;-3.61;100.00;61631.75;5068691;28;20485;-76
2022/01/12 08:10:23;;;;;;;5.80;3.45;;;;;;;-3.58;100.00;61632.34;5066084;28;20361;-76
2022/01/12 08:12:50;;;;;;;6.55;5.43;;;;;;;-3.29;100.00;61665.91;5066463;28;20255;-76
2022/01/12 08:15:19;;;;;;;7.50;3.88;;;;;;;-2.99;100.00;61692.09;5064535;28;20243;-76
2022/01/12 08:17:46;;;;;;;10.23;4.57;;;;;;;-3.11;99.59;61684.28;5066599;28;20197;-76
2022/01/12 08:20:17;;;;;;;6.88;4.38;;;;;;;-2.89;98.04;61706.78;5066816;28;20239;-75
2022/01/12 08:22:44;;;;;;;8.65;4.50;;;;;;;-2.69;96.67;61725.22;5065618;28;20193;-76
2022/01/12 08:25:11;;;;;;;4.10;2.08;;;;;;;-2.69;95.78;61727.72;5048262;28;20245;-76
2022/01/12 08:27:38;;;;;;;7.82;3.38;;;;;;;-2.93;96.11;61695.19;5048086;28;20469;-75
2022/01/12 08:30:07;;;;;;;3.85;3.10;;;;;;;-3.28;95.60;61667.44;5063222;28;20421;-76
2022/01/12 08:32:35;;;;;;;5.28;3.72;;;;;;;-3.20;98.23;61673.13;5046663;28;20194;-76
2022/01/12 08:35:02;;;;;;;6.03;4.82;;;;;;;-3.47;99.04;61648.03;5055763;28;20221;-77
2022/01/12 08:37:29;;;;;;;6.22;3.60;;;;;;;-3.44;97.97;61651.09;5044777;28;20197;-76
2022/01/12 08:39:56;;;;;;;4.47;2.63;;;;;;;-3.47;97.63;61645.56;5057808;28;20233;-76
2022/01/12 08:42:23;;;;;;;4.10;2.90;;;;;;;-3.35;99.13;61659.78;5063011;28;20568;-76
2022/01/12 08:44:50;;;;;;;6.45;3.47;;;;;;;-3.17;98.91;61675.66;5065607;28;20213;-77
2022/01/12 08:47:18;;;;;;;3.45;3.10;;;;;;;-3.20;97.70;61670.63;5064135;28;20206;-77
2022/01/12 08:49:46;;;;;;;2.67;2.40;;;;;;;-3.20;96.53;61680.06;5063869;28;20225;-75
2022/01/12 08:52:13;;;;;;;10.20;5.10;;;;;;;-3.50;96.21;61649.94;5063741;28;20209;-76
2022/01/12 08:54:40;;;;;;;2.80;2.50;;;;;;;-3.40;96.99;61657.16;5065002;28;20337;-77
2022/01/12 08:57:07;;;;;;;4.22;3.70;;;;;;;-3.56;96.91;61638.84;5066641;28;20203;-77
2022/01/12 08:59:34;;;;;;;2.80;2.58;;;;;;;-3.39;98.07;61656.22;5054130;28;20227;-75
2022/01/12 09:02:01;;;;;;;2.25;2.05;;;;;;;-3.52;97.69;61642.94;5064884;28;20204;-76
2022/01/12 09:04:28;;;;;;;6.80;4.07;;;;;;;-3.54;96.61;61635.91;5064482;28;20559;-76
2022/01/12 09:06:58;;;;;;;6.55;3.90;;;;;;;-3.46;95.95;61649.06;5064247;28;20409;-76
2022/01/12 09:09:26;;;;;;;5.57;3.40;;;;;;;-3.43;96.38;61649.13;5062960;28;20570;-77
2022/01/12 09:11:53;;;;;;;6.53;3.17;;;;;;;-3.44;96.65;61651.09;5064332;28;20202;-77
2022/01/12 09:14:20;;;;;;;2.03;1.30;;;;;;;-3.42;95.21;61650.66;5065186;28;20402;-77
2022/01/12 09:16:52;;;;;;;3.70;2.78;;;;;;;-3.43;96.28;61646.66;5063966;28;20209;-75
2022/01/12 09:19:19;;;;;;;2.13;1.92;;;;;;;-3.36;95.24;61661.75;5067709;28;20544;-77
2022/01/12 09:21:45;;;;;;;2.72;2.50;;;;;;;-3.41;96.12;61656.66;5070498;28;20490;-76
2022/01/12 09:24:14;;;;;;;4.38;3.25;;;;;;;-3.36;96.69;61658.75;5053123;28;20225;-76
2022/01/12 09:26:42;;;;;;;3.45;2.88;;;;;;;-3.01;95.26;61692.03;5047567;28;20222;-77
2022/01/12 09:29:09;;;;;;;4.03;2.80;;;;;;;-2.92;93.83;61709.19;5055991;28;20225;-75
2022/01/12 09:31:36;;;;;;;2.42;2.22;;;;;;;-2.83;94.55;61710.41;5065881;28;20201;-75
2022/01/12 09:34:03;;;;;;;4.53;2.78;;;;;;;-2.93;94.84;61703.19;5065396;28;20260;-76
2022/01/12 09:36:30;;;;;;;3.83;2.33;;;;;;;-3.05;94.33;61692.91;5066828;28;20519;-76
2022/01/12 09:38:57;;;;;;;6.07;3.33;;;;;;;-3.19;96.06;61679.13;5068118;28;20245;-77
2022/01/12 09:41:27;;;;;;;5.30;3.58;;;;;;;-3.37;97.23;61655.75;5067660;28;20231;-76
2022/01/12 09:43:57;;;;;;;3.45;2.55;;;;;;;-3.50;97.86;61644.97;5066007;28;20240;-76
2022/01/12 09:46:25;;;;;;;4.57;2.80;;;;;;;-3.45;99.10;61654.56;5066810;28;20197;-75
2022/01/12 09:48:52;;;;;;;7.97;4.35;;;;;;;-3.34;98.48;61666.28;5066923;28;20308;-75
2022/01/12 09:51:19;;;;;;;3.63;2.63;;;;;;;-3.40;97.51;61660.16;5066636;28;20201;-75
2022/01/12 09:53:46;;;;;;;3.45;2.22;;;;;;;-3.13;97.27;61682.25;5066559;28;20213;-75
2022/01/12 09:56:17;;;;;;;2.10;1.88;;;;;;;-3.31;96.61;61663.88;5067117;28;20244;-76
2022/01/12 09:58:46;;;;;;;1.63;1.48;;;;;;;-3.51;97.59;61643.94;5064997;28;20225;-76
2022/01/12 10:01:13;;;;;;;3.40;2.55;;;;;;;-3.36;98.29;61653.78;5066276;28;20197;-77
2022/01/12 10:03:40;;;;;;;3.25;2.63;;;;;;;-3.34;97.75;61665.78;5067465;28;20280;-76
2022/01/12 14:16:11;;;;;;;3.90;3.50;;;;;;;-2.80;83.11;61715.97;5491523;23;2008401;-75
2022/01/12 14:18:39;;;;;;;4.35;3.63;;;;;;;-2.97;85.28;61698.59;5007444;28;20198;-77
2022/01/12 14:21:17;;;;;;;4.15;3.42;;;;;;;-2.95;86.35;61698.66;4996435;28;20250;-78
2022/01/12 14:23:44;;;;;;;5.20;3.33;;;;;;;-2.91;85.66;61704.72;4985242;28;20216;-76
2022/01/12 14:26:21;;;;;;;6.90;4.40;;;;;;;-2.92;85.42;61706.19;4966239;29;20253;-77
2022/01/12 14:28:48;;;;;;;5.88;3.65;;;;;;;-2.95;86.59;61698.16;4966612;29;20188;-76
2022/01/12 14:31:16;;;;;;;4.05;3.75;;;;;;;-2.81;85.61;61712.97;4984646;28;20278;-77
2022/01/12 14:33:44;;;;;;;5.38;3.97;;;;;;;-2.65;84.80;61731.28;4991369;28;20255;-77
2022/01/12 14:36:12;;;;;;;5.45;4.00;;;;;;;-2.63;83.93;61733.34;4990781;28;20267;-77
2022/01/12 14:38:42;;;;;;;5.45;4.95;;;;;;;-2.83;83.86;61712.91;4987996;28;20211;-77
2022/01/12 14:41:08;;;;;;;5.20;3.97;;;;;;;-2.95;85.28;61698.16;4999245;28;20219;-75
2022/01/12 14:43:35;;;;;;;7.32;4.75;;;;;;;-2.69;85.30;61727.19;5003716;28;20200;-76
2022/01/12 14:46:02;;;;;;;4.43;3.97;;;;;;;-3.01;85.79;61699.50;4984504;28;20220;-76
2022/01/12 14:48:31;;;;;;;8.38;5.53;;;;;;;-3.17;86.83;61683.66;4983333;28;20207;-76
2022/01/12 14:50:58;;;;;;;9.35;6.43;;;;;;;-3.17;87.29;61680.66;4970231;28;20291;-76
2022/01/12 14:53:25;;;;;;;4.03;3.40;;;;;;;-2.96;86.36;61704.59;4965907;29;20232;-75
2022/01/12 14:55:55;;;;;;;4.03;3.72;;;;;;;-2.89;85.92;61707.28;4972595;28;20251;-77
2022/01/12 14:58:24;;;;;;;5.00;3.47;;;;;;;-2.71;86.71;61727.66;5005120;28;20199;-76
2022/01/12 15:00:55;;;;;;;9.13;4.97;;;;;;;-2.97;85.06;61699.09;5009053;28;20282;-77
2022/01/12 15:03:23;;;;;;;4.80;3.95;;;;;;;-3.09;85.06;61691.31;5011011;28;20188;-77
2022/01/12 15:05:52;;;;;;;3.95;3.15;;;;;;;-3.02;85.53;61689.00;4994728;28;20551;-77
2022/01/12 15:08:21;;;;;;;4.43;2.78;;;;;;;-3.22;85.52;61668.59;4988715;28;20246;-77
2022/01/12 15:10:49;;;;;;;6.40;3.60;;;;;;;-3.19;85.97;61674.13;4989379;28;20564;-76
2022/01/12 15:13:20;;;;;;;6.20;3.95;;;;;;;-3.34;87.39;61658.31;4988745;28;20235;-78
2022/01/12 15:15:49;;;;;;;3.40;3.10;;;;;;;-3.42;88.41;61648.16;4987197;28;20239;-76
2022/01/12 15:18:16;;;;;;;4.30;3.83;;;;;;;-3.37;88.82;61652.75;4988769;28;20207;-77
2022/01/12 15:20:43;;;;;;;4.40;3.63;;;;;;;-3.33;88.93;61659.34;4988577;28;20407;-77
2022/01/12 15:23:11;;;;;;;4.32;3.60;;;;;;;-3.21;88.80;61674.59;4987751;28;20239;-76
2022/01/12 15:25:39;;;;;;;3.55;3.10;;;;;;;-3.37;88.60;61652.75;4987265;28;20224;-76
2022/01/12 15:28:07;;;;;;;2.92;2.63;;;;;;;-3.33;89.00;61659.84;4987757;28;20192;-78
2022/01/12 15:30:34;;;;;;;3.60;3.30;;;;;;;-3.31;88.81;61661.88;4986915;28;20251;-77
2022/01/12 15:33:01;;;;;;;9.82;6.15;;;;;;;-3.14;89.49;61686.22;4988132;28;20246;-77
2022/01/12 15:35:31;;;;;;;3.85;3.05;;;;;;;-3.28;89.25;61672.44;4987295;28;20216;-76
2022/01/12 15:37:58;;;;;;;5.75;3.60;;;;;;;-3.31;89.99;61661.38;4985616;28;20500;-78
2022/01/12 15:40:27;;;;;;;3.60;3.20;;;;;;;-3.40;90.29;61655.19;4987590;28;20224;-77
2022/01/12 15:42:54;;;;;;;3.00;2.13;;;;;;;-3.57;89.63;61635.84;4987587;28;20196;-77
2022/01/12 15:45:21;;;;;;;10.35;3.97;;;;;;;-3.47;89.81;61648.03;4987640;28;20283;-77
2022/01/12 15:47:48;;;;;;;2.85;2.25;;;;;;;-3.43;90.35;61651.63;4986631;28;20211;-77
2022/01/12 15:50:15;;;;;;;4.28;2.60;;;;;;;-3.44;89.75;61653.06;4987292;28;20228;-76
2022/01/12 15:52:41;;;;;;;3.70;3.17;;;;;;;-3.46;90.34;61646.56;4987118;28;20250;-77
2022/01/12 15:55:09;;;;;;;4.68;2.85;;;;;;;-3.56;90.43;61636.88;4985924;28;20365;-76
2022/01/12 15:57:38;;;;;;;4.47;3.45;;;;;;;-3.61;90.86;61639.22;4986794;28;20247;-77
2022/01/12 16:00:06;;;;;;;9.82;3.47;;;;;;;-3.60;91.39;61639.72;4987346;28;20207;-76
2022/01/12 16:02:33;;;;;;;3.63;3.33;;;;;;;-3.45;90.38;61654.56;4987011;28;20219;-78
2022/01/12 16:05:00;;;;;;;3.95;3.55;;;;;;;-3.39;90.95;61653.19;4986300;28;20251;-78
2022/01/12 16:07:28;;;;;;;16.95;8.88;;;;;;;-3.41;91.63;61651.66;4987262;28;20239;-77
2022/01/12 16:09:56;;;;;;;5.72;4.50;;;;;;;-3.33;91.16;61659.34;4986484;28;20243;-77
2022/01/12 16:12:23;;;;;;;6.57;4.07;;;;;;;-3.16;91.45;61679.19;4986605;28;20292;-76
2022/01/12 16:14:53;;;;;;;6.22;4.30;;;;;;;-3.29;90.28;61666.41;4981643;28;20216;-77
2022/01/12 16:17:20;;;;;;;4.22;3.38;;;;;;;-3.24;90.03;61671.00;4982672;28;20208;-78
2022/01/12 16:19:49;;;;;;;4.75;3.85;;;;;;;-3.17;89.17;61683.13;4987835;28;20199;-76
2022/01/12 16:22:17;;;;;;;6.18;4.03;;;;;;;-3.19;88.33;61679.13;4989966;28;20224;-77
2022/01/12 16:24:44;;;;;;;5.18;3.45;;;;;;;-3.31;87.74;61663.88;4980854;28;20251;-77
2022/01/12 16:27:11;;;;;;;4.13;3.28;;;;;;;-3.41;88.70;61648.66;4986866;28;20224;-78
2022/01/12 16:29:38;;;;;;;4.63;3.38;;;;;;;-3.41;89.12;61654.16;4988093;28;20407;-77
2022/01/12 16:32:08;;;;;;;3.97;3.28;;;;;;;-3.27;89.72;61665.47;4986446;28;20215;-76
2022/01/12 16:34:35;;;;;;;8.20;5.10;;;;;;;-3.30;88.60;61665.41;4995712;28;20232;-76
2022/01/12 16:37:02;;;;;;;5.93;3.50;;;;;;;-3.26;88.94;61668.97;4985750;28;20236;-75
2022/01/12 16:39:29;;;;;;;4.55;3.10;;;;;;;-3.15;89.53;61675.22;4984427;28;20208;-76
2022/01/12 16:41:56;;;;;;;3.33;2.80;;;;;;;-3.12;89.74;61678.31;4980858;28;20221;-77
2022/01/12 16:44:23;;;;;;;6.57;4.32;;;;;;;-3.09;89.97;61681.84;4989078;28;20211;-77
2022/01/12 16:46:50;;;;;;;10.20;7.25;;;;;;;-3.11;89.82;61679.31;4985595;28;20232;-77
2022/01/12 16:49:21;;;;;;;9.35;3.50;;;;;;;-3.05;89.42;61688.44;4986828;28;20207;-78
2022/01/12 16:51:48;;;;;;;4.18;2.88;;;;;;;-3.06;87.50;61699.88;4982242;28;20220;-78
2022/01/12 16:54:17;;;;;;;7.40;5.20;;;;;;;-3.11;87.97;61687.31;4986762;28;20294;-79
2022/01/12 16:56:44;;;;;;;5.25;4.35;;;;;;;-3.06;88.74;61694.38;4985283;28;20232;-78
2022/01/12 16:59:11;;;;;;;9.15;6.07;;;;;;;-3.06;87.98;61684.41;4982343;28;20212;-78
2022/01/12 17:01:38;;;;;;;7.65;5.50;;;;;;;-3.14;88.34;61684.22;4990598;28;20480;-78
2022/01/12 17:04:05;;;;;;;9.05;3.92;;;;;;;-3.22;89.55;61671.06;4985510;28;20200;-78
2022/01/12 17:06:33;;;;;;;6.60;3.58;;;;;;;-3.19;89.70;61674.13;4986154;28;20259;-77
2022/01/12 17:09:01;;;;;;;12.18;6.25;;;;;;;-3.03;89.07;61690.50;4986869;28;20246;-76
2022/01/12 17:11:28;;;;;;;9.13;4.95;;;;;;;-2.98;89.32;61703.06;4984610;28;20235;-77
2022/01/12 17:13:58;;;;;;;7.28;4.65;;;;;;;-2.89;89.00;61709.25;4985695;28;20242;-78